Time;durP1;ratioP1;P1;durP2;ratioP2;P2;SDS_P1;SDS_P2;PMS_P1;PMS_P2;Temp;Humidity;BMP_temperature;BMP_pressure;BME280_temperature;BME280_humidity;BME280_pressure;Samples;Min_cycle;Max_cycle;Signal;HPM_P1;HPM_P2
2023/02/26 00:01:19;;;;;;;0.63;0.50;;;18.00;34.50;;;;;;4900523;29;20670;-81
2023/02/26 00:03:48;;;;;;;0.22;0.22;;;18.00;34.60;;;;;;4900948;29;20179;-81
2023/02/26 00:06:14;;;;;;;0.45;0.40;;;18.00;34.50;;;;;;4915878;29;20209;-81
2023/02/26 00:08:39;;;;;;;0.40;0.32;;;18.00;34.50;;;;;;4916451;29;20611;-81
2023/02/26 00:11:06;;;;;;;0.38;0.38;;;18.00;34.50;;;;;;4916548;29;20559;-82
2023/02/26 00:13:32;;;;;;;0.30;0.30;;;17.90;34.50;;;;;;4916289;29;20163;-81
2023/02/26 00:15:59;;;;;;;0.55;0.40;;;18.00;34.60;;;;;;4916076;29;20249;-82
2023/02/26 00:18:25;;;;;;;0.35;0.35;;;18.00;34.60;;;;;;4900442;29;20159;-82
2023/02/26 00:20:51;;;;;;;0.40;0.40;;;18.00;34.70;;;;;;4900183;29;20265;-82
2023/02/26 00:23:17;;;;;;;0.50;0.40;;;18.00;34.70;;;;;;4916076;29;20614;-81
2023/02/26 00:25:43;;;;;;;0.80;0.30;;;17.90;34.70;;;;;;4900468;29;20210;-81
2023/02/26 00:28:09;;;;;;;0.40;0.40;;;17.90;34.70;;;;;;4915853;29;20764;-82
2023/02/26 00:30:35;;;;;;;0.40;0.32;;;17.90;34.70;;;;;;4900665;29;20213;-81
2023/02/26 00:33:01;;;;;;;0.40;0.40;;;17.90;34.80;;;;;;4900194;29;20175;-82
2023/02/26 00:35:27;;;;;;;0.40;0.40;;;17.90;34.70;;;;;;4916187;29;20645;-81
2023/02/26 00:38:07;;;;;;;0.20;0.20;;;17.90;34.80;;;;;;4918728;29;20606;-81
2023/02/26 00:40:54;;;;;;;0.40;0.38;;;17.90;34.80;;;;;;4903778;29;20175;-82
2023/02/26 00:43:23;;;;;;;0.40;0.40;;;17.90;34.80;;;;;;4920666;29;20166;-81
2023/02/26 00:46:20;;;;;;;0.40;0.40;;;17.90;34.80;;;;;;4904285;29;20300;-81
2023/02/26 00:49:17;;;;;;;0.52;0.35;;;17.90;34.80;;;;;;4919773;29;20174;-81
2023/02/26 00:51:52;;;;;;;0.35;0.30;;;17.90;34.90;;;;;;4919944;29;20182;-81
2023/02/26 00:54:21;;;;;;;0.47;0.40;;;17.90;35.00;;;;;;4919411;29;20159;-81
2023/02/26 00:56:48;;;;;;;0.28;0.28;;;17.90;34.90;;;;;;4903959;29;20633;-81
2023/02/26 00:59:15;;;;;;;0.32;0.32;;;17.90;35.00;;;;;;4919704;29;20162;-81
2023/02/26 01:01:41;;;;;;;0.40;0.40;;;17.90;35.00;;;;;;4903467;29;20167;-81
2023/02/26 01:04:08;;;;;;;0.45;0.30;;;17.90;35.00;;;;;;4903381;29;20183;-82
2023/02/26 01:06:34;;;;;;;0.50;0.47;;;17.80;35.00;;;;;;4887628;29;20611;-81
2023/02/26 01:09:09;;;;;;;0.40;0.38;;;17.90;35.00;;;;;;4887816;29;20227;-82
2023/02/26 01:11:35;;;;;;;0.40;0.30;;;17.90;35.10;;;;;;4903255;29;20645;-82
2023/02/26 01:14:03;;;;;;;0.52;0.40;;;17.90;35.10;;;;;;4903440;29;20187;-81
2023/02/26 01:16:30;;;;;;;0.35;0.35;;;17.90;35.10;;;;;;4918967;29;20171;-81
2023/02/26 01:19:01;;;;;;;0.32;0.30;;;17.80;35.10;;;;;;4918963;29;20159;-81
2023/02/26 01:21:32;;;;;;;0.52;0.40;;;17.80;35.10;;;;;;4903613;29;20519;-82
2023/02/26 01:23:57;;;;;;;0.40;0.40;;;17.80;35.10;;;;;;4903868;29;20634;-81
2023/02/26 01:26:26;;;;;;;0.30;0.30;;;17.80;35.10;;;;;;4903165;29;20190;-81
2023/02/26 01:28:52;;;;;;;0.70;0.40;;;17.80;35.10;;;;;;4902942;29;20744;-81
2023/02/26 01:31:29;;;;;;;0.50;0.40;;;17.90;35.20;;;;;;4918872;29;20164;-81
2023/02/26 01:34:00;;;;;;;0.63;0.40;;;17.80;35.20;;;;;;4888339;29;20170;-81
2023/02/26 01:36:29;;;;;;;0.35;0.35;;;17.80;35.80;;;;;;4919834;29;20227;-82
2023/02/26 01:39:03;;;;;;;0.32;0.32;;;17.80;35.20;;;;;;4918693;29;20601;-82
2023/02/26 01:41:49;;;;;;;0.60;0.40;;;17.90;35.20;;;;;;4887636;29;20620;-82
2023/02/26 01:44:25;;;;;;;0.30;0.30;;;17.80;35.20;;;;;;4890316;29;20171;-80
2023/02/26 01:47:29;;;;;;;0.50;0.40;;;17.80;35.20;;;;;;4903243;29;20182;-80
2023/02/26 01:49:55;;;;;;;0.60;0.40;;;17.80;35.20;;;;;;4918543;29;20162;-80
2023/02/26 01:53:01;;;;;;;0.68;0.30;;;17.80;35.20;;;;;;4918313;29;20245;-80
2023/02/26 01:55:26;;;;;;;0.60;0.30;;;17.80;35.30;;;;;;4918246;29;20171;-81
2023/02/26 01:57:53;;;;;;;0.45;0.40;;;17.70;35.30;;;;;;4918383;29;20175;-81
2023/02/26 02:00:19;;;;;;;0.80;0.50;;;17.80;35.30;;;;;;4919427;29;20302;-81
2023/02/26 02:02:45;;;;;;;0.80;0.40;;;17.80;35.40;;;;;;4919566;29;20159;-81
2023/02/26 02:05:14;;;;;;;0.50;0.40;;;17.80;35.40;;;;;;4902953;29;20215;-81
2023/02/26 02:07:39;;;;;;;0.30;0.30;;;17.80;35.40;;;;;;4902612;29;20685;-81
2023/02/26 02:10:06;;;;;;;0.47;0.38;;;17.80;36.10;;;;;;4902330;29;20194;-82
2023/02/26 02:12:39;;;;;;;0.73;0.50;;;17.80;35.50;;;;;;4918331;29;20182;-81
2023/02/26 02:15:15;;;;;;;0.30;0.30;;;17.80;35.40;;;;;;4886746;29;20163;-81
2023/02/26 02:17:50;;;;;;;0.30;0.30;;;17.80;35.50;;;;;;4917857;29;20181;-82
2023/02/26 02:20:35;;;;;;;0.82;0.50;;;17.80;35.50;;;;;;4917930;29;20500;-81
2023/02/26 02:23:25;;;;;;;0.40;0.30;;;17.80;35.50;;;;;;4904555;29;20174;-81
2023/02/26 02:26:11;;;;;;;0.63;0.45;;;17.70;35.50;;;;;;4918811;29;20167;-81
2023/02/26 02:28:48;;;;;;;0.52;0.30;;;17.80;35.50;;;;;;4927794;29;20221;-82
2023/02/26 02:31:21;;;;;;;0.40;0.38;;;17.80;35.50;;;;;;4921511;29;20193;-82
2023/02/26 02:33:59;;;;;;;0.50;0.50;;;17.70;35.50;;;;;;4905835;29;20154;-81
2023/02/26 02:36:47;;;;;;;0.38;0.38;;;17.70;35.50;;;;;;4920756;29;20602;-81
2023/02/26 02:39:27;;;;;;;0.30;0.30;;;17.70;35.60;;;;;;4922397;29;20534;-81
2023/02/26 02:41:55;;;;;;;0.47;0.20;;;17.70;35.60;;;;;;4937712;29;20172;-81
2023/02/26 02:44:22;;;;;;;1.17;0.55;;;17.70;35.60;;;;;;4905129;29;20158;-81
2023/02/26 02:46:49;;;;;;;0.85;0.55;;;17.70;35.60;;;;;;4889701;29;20193;-81
2023/02/26 02:49:27;;;;;;;0.47;0.40;;;17.70;35.60;;;;;;4920283;29;20166;-82
2023/02/26 02:51:58;;;;;;;0.75;0.50;;;17.70;35.60;;;;;;4905928;29;20189;-81
2023/02/26 02:54:40;;;;;;;0.32;0.32;;;17.70;36.30;;;;;;4937595;29;20163;-81
2023/02/26 02:57:12;;;;;;;0.43;0.40;;;17.70;35.60;;;;;;4906528;29;20188;-81
2023/02/26 02:59:44;;;;;;;0.50;0.40;;;17.70;35.70;;;;;;4904592;29;20169;-81
2023/02/26 03:02:27;;;;;;;0.38;0.38;;;17.70;35.80;;;;;;4919859;29;20166;-81
2023/02/26 03:04:53;;;;;;;0.30;0.30;;;17.70;35.70;;;;;;4905029;29;20162;-81
2023/02/26 03:07:18;;;;;;;0.40;0.40;;;17.70;35.70;;;;;;4937094;29;20190;-81
2023/02/26 03:09:44;;;;;;;0.30;0.30;;;17.70;35.70;;;;;;4920219;29;20637;-81
2023/02/26 03:12:10;;;;;;;0.30;0.30;;;17.70;35.80;;;;;;4920137;29;20162;-81
2023/02/26 03:14:35;;;;;;;0.40;0.30;;;17.70;35.80;;;;;;4904416;29;20217;-81
2023/02/26 03:17:25;;;;;;;0.35;0.30;;;17.70;35.80;;;;;;4904223;29;20539;-81
2023/02/26 03:20:20;;;;;;;0.40;0.40;;;17.70;35.80;;;;;;4922562;29;20162;-81
2023/02/26 03:23:02;;;;;;;0.88;0.30;;;17.70;35.90;;;;;;4903883;29;20174;-81
2023/02/26 03:25:48;;;;;;;0.70;0.47;;;17.70;35.80;;;;;;4919712;29;20169;-81
2023/02/26 03:28:31;;;;;;;0.30;0.30;;;17.70;35.90;;;;;;4919723;29;20209;-82
2023/02/26 03:31:16;;;;;;;0.68;0.43;;;17.70;35.90;;;;;;4919896;29;20165;-81
2023/02/26 03:33:59;;;;;;;0.43;0.43;;;17.70;35.90;;;;;;4906264;29;20166;-81
2023/02/26 03:36:35;;;;;;;0.38;0.38;;;17.70;35.90;;;;;;4919787;29;20203;-81
2023/02/26 03:39:16;;;;;;;0.50;0.40;;;17.60;35.80;;;;;;4919962;29;20154;-81
2023/02/26 03:41:45;;;;;;;0.68;0.40;;;17.70;36.00;;;;;;4905874;29;20158;-81
2023/02/26 03:44:23;;;;;;;0.40;0.40;;;17.70;36.60;;;;;;4919622;29;20166;-81
2023/02/26 03:46:52;;;;;;;0.30;0.30;;;17.70;35.90;;;;;;4889600;29;20681;-81
2023/02/26 03:49:23;;;;;;;0.57;0.40;;;17.70;36.00;;;;;;4919753;29;20177;-81
2023/02/26 03:51:49;;;;;;;0.40;0.40;;;17.70;36.00;;;;;;4919937;29;20155;-81
2023/02/26 03:54:20;;;;;;;0.80;0.40;;;17.70;36.00;;;;;;4903958;29;20215;-81
2023/02/26 03:56:46;;;;;;;0.52;0.30;;;17.70;36.00;;;;;;4904363;29;20166;-81
2023/02/26 03:59:12;;;;;;;0.50;0.40;;;17.70;36.00;;;;;;4889069;29;20258;-81
2023/02/26 04:02:05;;;;;;;0.30;0.30;;;17.70;36.00;;;;;;4904150;29;20170;-81
2023/02/26 04:04:46;;;;;;;0.40;0.30;;;17.70;36.00;;;;;;4904060;29;20519;-82
2023/02/26 04:07:14;;;;;;;0.45;0.38;;;17.70;36.00;;;;;;4936555;29;20194;-81
2023/02/26 04:09:41;;;;;;;0.45;0.40;;;17.60;36.00;;;;;;4919948;29;20158;-81
2023/02/26 04:12:06;;;;;;;0.30;0.30;;;17.60;36.00;;;;;;4906656;29;20226;-80
2023/02/26 04:14:32;;;;;;;0.70;0.40;;;17.70;36.10;;;;;;4942980;29;20162;-81
2023/02/26 04:16:58;;;;;;;0.90;0.50;;;17.60;36.10;;;;;;4943119;29;20169;-81
2023/02/26 04:19:23;;;;;;;0.80;0.47;;;17.70;36.10;;;;;;4925603;29;20510;-81
2023/02/26 04:21:49;;;;;;;0.30;0.30;;;17.60;36.10;;;;;;4909850;29;20485;-80
2023/02/26 04:24:16;;;;;;;0.45;0.38;;;17.60;36.20;;;;;;4909902;29;20626;-81
2023/02/26 04:26:41;;;;;;;0.32;0.32;;;17.60;36.20;;;;;;4909760;29;20189;-81
2023/02/26 04:29:07;;;;;;;0.60;0.35;;;17.70;36.20;;;;;;4942429;29;20224;-80
2023/02/26 04:31:33;;;;;;;0.50;0.40;;;17.60;36.20;;;;;;4909671;29;20537;-81
2023/02/26 04:33:58;;;;;;;0.30;0.30;;;17.60;36.20;;;;;;4910078;29;20177;-82
2023/02/26 04:36:25;;;;;;;0.50;0.50;;;17.60;36.20;;;;;;4909857;29;20173;-81
2023/02/26 04:38:50;;;;;;;0.50;0.45;;;17.60;36.20;;;;;;4925588;29;20198;-81
2023/02/26 04:41:16;;;;;;;0.30;0.30;;;17.60;36.20;;;;;;4909729;29;20189;-81
2023/02/26 04:43:42;;;;;;;0.30;0.30;;;17.60;36.20;;;;;;4909931;29;20523;-81
2023/02/26 04:46:07;;;;;;;0.30;0.30;;;17.60;36.20;;;;;;4925227;29;20158;-82
2023/02/26 04:48:33;;;;;;;0.50;0.43;;;17.60;36.20;;;;;;4925459;29;20166;-81
2023/02/26 04:50:59;;;;;;;0.63;0.40;;;17.60;36.20;;;;;;4925541;29;20237;-81
2023/02/26 04:53:25;;;;;;;0.63;0.40;;;17.60;36.30;;;;;;4909950;29;20166;-81
2023/02/26 04:55:51;;;;;;;0.38;0.30;;;17.60;36.20;;;;;;4925558;29;20200;-81
2023/02/26 04:58:17;;;;;;;0.52;0.40;;;17.60;36.20;;;;;;4925394;29;21029;-81
2023/02/26 05:00:42;;;;;;;0.50;0.40;;;17.60;36.30;;;;;;4909820;29;20548;-82
2023/02/26 05:03:08;;;;;;;0.40;0.40;;;17.60;36.30;;;;;;4909372;29;20652;-81
2023/02/26 05:05:34;;;;;;;0.50;0.40;;;17.50;36.30;;;;;;4942139;29;20241;-82
2023/02/26 05:08:00;;;;;;;0.30;0.30;;;17.50;36.30;;;;;;4909789;29;20318;-82
2023/02/26 05:10:26;;;;;;;0.30;0.30;;;17.60;36.40;;;;;;4894469;29;20166;-81
2023/02/26 05:12:52;;;;;;;0.47;0.38;;;17.60;36.40;;;;;;4909652;29;20154;-81
2023/02/26 05:15:18;;;;;;;0.40;0.40;;;17.60;36.40;;;;;;4909760;29;20237;-81
2023/02/26 05:17:45;;;;;;;0.50;0.40;;;17.60;36.40;;;;;;4893762;29;20197;-82
2023/02/26 05:20:11;;;;;;;0.50;0.38;;;17.60;36.40;;;;;;4909424;29;20166;-81
2023/02/26 05:22:37;;;;;;;0.30;0.30;;;17.60;37.10;;;;;;4909418;29;20173;-81
2023/02/26 05:25:05;;;;;;;0.30;0.30;;;17.50;36.40;;;;;;4921432;29;20173;-81
2023/02/26 05:27:30;;;;;;;0.38;0.38;;;17.60;36.50;;;;;;4906553;29;20689;-80
2023/02/26 05:29:56;;;;;;;0.38;0.32;;;17.60;36.50;;;;;;4922312;29;20198;-81
2023/02/26 05:32:22;;;;;;;0.90;0.40;;;17.60;36.40;;;;;;4906234;29;20154;-80
2023/02/26 05:34:50;;;;;;;0.30;0.30;;;17.50;36.40;;;;;;4906231;29;20201;-80
2023/02/26 05:37:16;;;;;;;0.30;0.30;;;17.50;36.50;;;;;;4938854;29;20189;-81
2023/02/26 05:39:42;;;;;;;0.80;0.40;;;17.50;36.40;;;;;;4922181;29;20197;-81
2023/02/26 05:42:07;;;;;;;0.40;0.30;;;17.60;36.50;;;;;;4921848;29;20162;-81
2023/02/26 05:44:34;;;;;;;0.57;0.40;;;17.50;36.50;;;;;;4905910;29;20230;-81
2023/02/26 05:47:00;;;;;;;0.50;0.40;;;17.60;36.60;;;;;;4922065;29;20197;-81
2023/02/26 05:49:26;;;;;;;0.35;0.32;;;17.50;36.50;;;;;;4906528;29;20602;-81
2023/02/26 05:51:52;;;;;;;0.40;0.40;;;17.50;36.50;;;;;;4922114;29;20185;-81
2023/02/26 05:54:17;;;;;;;0.30;0.30;;;17.50;36.50;;;;;;4905857;29;20170;-82
2023/02/26 05:56:43;;;;;;;0.50;0.30;;;17.50;36.50;;;;;;4905870;29;20167;-82
2023/02/26 05:59:09;;;;;;;0.55;0.47;;;17.50;36.50;;;;;;4905912;29;20233;-81
2023/02/26 06:01:36;;;;;;;0.50;0.35;;;17.60;36.60;;;;;;4890169;29;20166;-82
2023/02/26 06:04:02;;;;;;;0.50;0.50;;;17.50;36.60;;;;;;4938686;29;20162;-82
2023/02/26 06:06:28;;;;;;;0.40;0.40;;;17.50;36.60;;;;;;4930378;29;20244;-83
2023/02/26 06:08:54;;;;;;;1.40;0.38;;;17.60;36.60;;;;;;4946609;29;20158;-83
2023/02/26 06:11:19;;;;;;;0.63;0.35;;;17.50;36.60;;;;;;4931418;29;20161;-82
2023/02/26 06:13:45;;;;;;;0.50;0.28;;;17.50;36.50;;;;;;4929666;29;20186;-82
2023/02/26 06:16:13;;;;;;;0.47;0.30;;;17.50;36.60;;;;;;4946165;29;20596;-83
2023/02/26 06:18:40;;;;;;;0.50;0.40;;;17.50;37.30;;;;;;4946806;29;20614;-83
2023/02/26 06:21:06;;;;;;;0.30;0.30;;;17.60;36.60;;;;;;4929664;29;20162;-83
2023/02/26 06:23:32;;;;;;;0.40;0.40;;;17.50;36.60;;;;;;4930300;29;20204;-82
2023/02/26 06:25:59;;;;;;;0.50;0.40;;;17.50;36.60;;;;;;4929434;29;20181;-81
2023/02/26 06:28:25;;;;;;;0.55;0.50;;;17.50;36.60;;;;;;4925867;29;20218;-81
2023/02/26 06:30:52;;;;;;;0.30;0.30;;;17.50;36.50;;;;;;4925645;29;20173;-82
2023/02/26 06:33:18;;;;;;;0.40;0.30;;;17.60;36.60;;;;;;4925858;29;20154;-82
2023/02/26 06:35:44;;;;;;;0.40;0.40;;;17.50;36.60;;;;;;4942016;29;20164;-82
2023/02/26 06:38:10;;;;;;;0.38;0.38;;;17.50;36.60;;;;;;4926328;29;20174;-81
2023/02/26 06:40:37;;;;;;;0.75;0.43;;;17.50;36.60;;;;;;4910440;29;20170;-82
2023/02/26 06:43:03;;;;;;;1.15;0.50;;;17.50;36.60;;;;;;4926009;29;20162;-82
2023/02/26 06:45:31;;;;;;;0.40;0.30;;;17.50;36.60;;;;;;4925378;29;20273;-82
2023/02/26 06:47:57;;;;;;;0.47;0.47;;;17.50;36.70;;;;;;4925234;29;20337;-82
2023/02/26 06:50:23;;;;;;;0.50;0.43;;;17.50;36.70;;;;;;4925419;29;20221;-81
2023/02/26 06:52:51;;;;;;;0.57;0.50;;;17.50;36.70;;;;;;4925890;29;20166;-81
2023/02/26 06:55:16;;;;;;;0.50;0.45;;;17.50;36.70;;;;;;4910472;29;20166;-82
2023/02/26 06:57:42;;;;;;;1.05;0.60;;;17.60;36.80;;;;;;4941528;29;20634;-81
2023/02/26 07:00:10;;;;;;;0.30;0.30;;;17.50;36.70;;;;;;4925534;29;20174;-82
2023/02/26 07:02:41;;;;;;;0.45;0.30;;;17.50;36.70;;;;;;4943077;29;20245;-82
2023/02/26 07:05:07;;;;;;;0.38;0.28;;;17.50;36.70;;;;;;4942308;29;20189;-82
2023/02/26 07:07:32;;;;;;;0.38;0.30;;;17.50;36.80;;;;;;4941836;29;20550;-83
2023/02/26 07:09:59;;;;;;;0.82;0.40;;;17.50;36.70;;;;;;4942062;29;20158;-84
2023/02/26 07:12:25;;;;;;;0.57;0.30;;;17.50;36.70;;;;;;4942182;29;20173;-82
2023/02/26 07:14:55;;;;;;;0.30;0.30;;;17.50;36.80;;;;;;4911113;29;20166;-81
2023/02/26 07:17:24;;;;;;;0.32;0.30;;;17.50;36.80;;;;;;4943372;29;20166;-82
2023/02/26 07:19:51;;;;;;;0.73;0.40;;;17.50;36.80;;;;;;4944497;29;20180;-82
2023/02/26 07:22:17;;;;;;;0.20;0.20;;;17.50;36.80;;;;;;4928446;29;20230;-82
2023/02/26 07:24:44;;;;;;;0.63;0.40;;;17.50;36.80;;;;;;4913349;29;20202;-82
2023/02/26 07:27:10;;;;;;;0.52;0.32;;;17.50;36.80;;;;;;4928024;29;20209;-82
2023/02/26 07:29:36;;;;;;;0.35;0.30;;;17.50;36.80;;;;;;4928328;29;20295;-81
2023/02/26 07:32:03;;;;;;;0.82;0.40;;;17.50;36.80;;;;;;4943295;29;20162;-82
2023/02/26 07:34:29;;;;;;;0.40;0.40;;;17.50;36.90;;;;;;4927830;29;20162;-82
2023/02/26 07:36:57;;;;;;;0.22;0.20;;;17.50;36.80;;;;;;4941644;29;20166;-82
2023/02/26 07:39:25;;;;;;;0.82;0.43;;;17.50;36.90;;;;;;4924071;29;20209;-82
2023/02/26 07:41:51;;;;;;;0.63;0.47;;;17.50;36.90;;;;;;4923811;29;20243;-82
2023/02/26 07:44:17;;;;;;;0.30;0.30;;;17.60;36.90;;;;;;4938217;29;20618;-82
2023/02/26 07:46:43;;;;;;;0.28;0.25;;;17.60;36.80;;;;;;4904045;29;20205;-81
2023/02/26 07:49:10;;;;;;;0.30;0.30;;;17.50;36.80;;;;;;4904692;29;20181;-82
2023/02/26 07:51:39;;;;;;;0.40;0.40;;;17.60;36.90;;;;;;4921837;28;20162;-81
2023/02/26 07:54:05;;;;;;;0.65;0.43;;;17.60;36.90;;;;;;4905046;29;20166;-82
2023/02/26 07:56:31;;;;;;;0.65;0.45;;;17.50;36.70;;;;;;4887629;29;20178;-82
2023/02/26 07:58:56;;;;;;;0.75;0.43;;;17.60;36.80;;;;;;4887004;29;20175;-83
2023/02/26 08:01:22;;;;;;;1.45;0.30;;;17.60;36.90;;;;;;4901742;29;20174;-81
2023/02/26 08:03:48;;;;;;;0.47;0.35;;;17.60;36.90;;;;;;4916935;29;20171;-82
2023/02/26 08:06:13;;;;;;;0.32;0.30;;;17.60;36.70;;;;;;4901318;29;20171;-83
2023/02/26 08:08:39;;;;;;;0.30;0.30;;;17.60;37.00;;;;;;4902787;29;20222;-81
2023/02/26 08:11:05;;;;;;;1.27;0.52;;;17.70;36.80;;;;;;4924033;29;20178;-82
2023/02/26 08:13:30;;;;;;;2.63;0.40;;;17.60;36.90;;;;;;4937128;29;20175;-82
2023/02/26 08:15:56;;;;;;;0.45;0.45;;;17.60;36.90;;;;;;4937209;29;20213;-83
2023/02/26 08:18:23;;;;;;;1.15;0.50;;;17.60;36.90;;;;;;4920713;29;20170;-82
2023/02/26 08:20:51;;;;;;;1.48;0.40;;;17.70;37.10;;;;;;4937015;29;20170;-83
2023/02/26 08:23:17;;;;;;;2.50;0.70;;;17.70;36.90;;;;;;4907530;29;20177;-83
2023/02/26 08:25:44;;;;;;;3.85;0.80;;;17.70;36.90;;;;;;4905582;29;20174;-83
2023/02/26 08:28:10;;;;;;;2.80;0.60;;;17.70;36.90;;;;;;4905615;29;20398;-83
2023/02/26 08:30:36;;;;;;;1.63;0.30;;;17.70;37.00;;;;;;4920569;29;20166;-82
2023/02/26 08:33:01;;;;;;;3.08;0.43;;;17.70;36.90;;;;;;4919513;29;20173;-82
2023/02/26 08:35:27;;;;;;;4.32;0.50;;;17.80;37.00;;;;;;4935930;29;20162;-83
2023/02/26 08:37:53;;;;;;;1.85;0.40;;;17.80;37.00;;;;;;4905398;29;20206;-83
2023/02/26 08:40:19;;;;;;;4.60;0.68;;;17.90;36.90;;;;;;4906260;29;20223;-83
2023/02/26 08:42:46;;;;;;;5.75;0.50;;;17.90;36.80;;;;;;4904352;29;20190;-84
2023/02/26 08:45:11;;;;;;;2.00;0.55;;;18.00;36.90;;;;;;4906159;29;20163;-83
2023/02/26 08:47:40;;;;;;;4.97;0.80;;;18.00;36.80;;;;;;4892415;29;20231;-83
2023/02/26 08:50:07;;;;;;;3.58;0.50;;;18.00;36.70;;;;;;4909289;29;20166;-83
2023/02/26 08:52:33;;;;;;;6.03;0.60;;;18.10;36.70;;;;;;4904186;29;20207;-83
2023/02/26 08:55:04;;;;;;;4.10;0.60;;;18.20;36.70;;;;;;4906183;29;20525;-83
2023/02/26 08:57:30;;;;;;;6.63;0.77;;;18.20;36.80;;;;;;4920632;29;20162;-84
2023/02/26 08:59:56;;;;;;;9.68;0.70;;;18.30;37.00;;;;;;4922589;29;20166;-82
2023/02/26 09:02:21;;;;;;;4.65;0.60;;;18.30;36.70;;;;;;4940916;29;20169;-81
2023/02/26 09:04:47;;;;;;;3.60;1.00;;;18.30;36.80;;;;;;4942346;29;20186;-83
2023/02/26 09:07:12;;;;;;;7.18;0.50;;;18.40;37.20;;;;;;4924454;29;20274;-83
2023/02/26 09:09:39;;;;;;;7.15;0.60;;;18.40;37.10;;;;;;4941464;29;20162;-82
2023/02/26 09:12:05;;;;;;;3.40;0.50;;;18.40;37.00;;;;;;4909897;29;20251;-83
2023/02/26 09:14:31;;;;;;;3.75;0.40;;;18.40;37.10;;;;;;4908853;29;20717;-83
2023/02/26 09:16:56;;;;;;;5.88;0.60;;;18.40;37.00;;;;;;4927130;29;20170;-83
2023/02/26 09:19:22;;;;;;;3.72;0.50;;;18.40;37.00;;;;;;4926325;29;20172;-82
2023/02/26 09:21:49;;;;;;;6.25;0.55;;;18.40;37.20;;;;;;4940825;29;20309;-82
2023/02/26 09:24:15;;;;;;;10.07;1.00;;;18.40;37.40;;;;;;4915455;29;20214;-81
2023/02/26 09:26:42;;;;;;;6.20;0.70;;;18.40;37.10;;;;;;4930562;29;20222;-82
2023/02/26 09:29:10;;;;;;;6.15;0.52;;;18.50;37.00;;;;;;4912489;29;20218;-82
2023/02/26 09:31:43;;;;;;;6.88;0.70;;;18.50;37.00;;;;;;4928290;29;20162;-81
2023/02/26 09:34:11;;;;;;;9.25;0.95;;;18.50;36.90;;;;;;4932691;29;20198;-81
2023/02/26 09:36:39;;;;;;;6.97;1.05;;;18.50;37.10;;;;;;4908949;29;20182;-82
2023/02/26 09:39:05;;;;;;;6.75;0.80;;;18.50;36.90;;;;;;4907292;29;20193;-82
2023/02/26 09:41:33;;;;;;;14.98;1.35;;;18.60;37.00;;;;;;4890315;29;20184;-82
2023/02/26 09:44:23;;;;;;;10.50;0.90;;;18.60;37.00;;;;;;4876801;29;20534;-82
2023/02/26 09:47:17;;;;;;;10.00;1.00;;;18.60;36.90;;;;;;4896651;29;20198;-82
2023/02/26 09:50:09;;;;;;;15.90;1.05;;;18.60;36.90;;;;;;4897200;29;20171;-82
2023/02/26 09:52:52;;;;;;;14.98;1.33;;;18.60;37.00;;;;;;4929069;29;20262;-82
2023/02/26 09:55:29;;;;;;;14.57;1.58;;;18.60;37.20;;;;;;4917453;29;20170;-83
2023/02/26 09:58:03;;;;;;;14.68;1.38;;;18.60;37.00;;;;;;4913359;29;20186;-83
2023/02/26 10:00:36;;;;;;;17.33;1.13;;;18.60;37.10;;;;;;4903048;29;20185;-79
2023/02/26 10:03:23;;;;;;;16.35;1.63;;;18.50;37.40;;;;;;4908635;29;20173;-83
2023/02/26 10:06:13;;;;;;;22.60;1.75;;;18.60;37.50;;;;;;4910542;29;20210;-83
2023/02/26 10:08:50;;;;;;;18.10;1.80;;;18.50;38.10;;;;;;4923653;29;20201;-82
2023/02/26 10:11:37;;;;;;;23.20;1.48;;;18.40;37.50;;;;;;4924233;29;20629;-82
2023/02/26 10:14:09;;;;;;;23.73;1.92;;;18.40;37.60;;;;;;4912293;29;20167;-82
2023/02/26 10:16:37;;;;;;;16.95;1.30;;;18.40;37.80;;;;;;4943751;29;20177;-82
2023/02/26 10:19:05;;;;;;;13.30;1.55;;;18.40;37.80;;;;;;4915153;29;20174;-82
2023/02/26 10:21:38;;;;;;;21.48;1.48;;;18.40;37.80;;;;;;4931378;29;20186;-83
2023/02/26 10:24:10;;;;;;;11.02;1.00;;;18.40;38.00;;;;;;4917978;29;20177;-82
2023/02/26 10:26:39;;;;;;;10.18;0.90;;;18.50;38.00;;;;;;4958037;29;20221;-83
2023/02/26 10:29:18;;;;;;;15.35;1.83;;;18.50;38.00;;;;;;4945851;29;20233;-82
2023/02/26 10:32:25;;;;;;;55.28;4.05;;;18.50;37.80;;;;;;4911073;29;20189;-82
2023/02/26 10:35:07;;;;;;;50.38;4.50;;;18.50;37.90;;;;;;4924962;29;20269;-84
2023/02/26 10:37:47;;;;;;;46.35;4.32;;;18.50;37.70;;;;;;4931131;29;20197;-82
2023/02/26 10:40:25;;;;;;;43.85;3.58;;;18.50;37.80;;;;;;4950681;29;20192;-82
2023/02/26 10:42:56;;;;;;;39.80;3.50;;;18.60;37.70;;;;;;4949318;29;20182;-83
2023/02/26 10:45:38;;;;;;;29.90;2.67;;;18.60;37.70;;;;;;4926244;29;20163;-82
2023/02/26 10:48:24;;;;;;;24.70;1.90;;;18.60;37.70;;;;;;4930317;29;20202;-83
2023/02/26 10:50:52;;;;;;;15.93;1.88;;;18.60;37.80;;;;;;4948489;29;20292;-82
2023/02/26 10:53:20;;;;;;;25.35;2.13;;;18.60;37.60;;;;;;4930382;29;20170;-83
2023/02/26 10:56:07;;;;;;;22.20;2.70;;;18.60;38.00;;;;;;4947247;29;20189;-82
2023/02/26 10:58:33;;;;;;;23.98;2.03;;;18.50;38.00;;;;;;4932646;29;20193;-82
2023/02/26 11:00:59;;;;;;;21.08;2.00;;;18.50;37.90;;;;;;4939543;29;20170;-82
2023/02/26 11:03:38;;;;;;;15.90;2.00;;;18.50;38.20;;;;;;4910492;29;20245;-83
2023/02/26 11:06:04;;;;;;;26.13;2.72;;;18.60;38.10;;;;;;4946886;29;20213;-83
2023/02/26 11:08:34;;;;;;;17.85;1.90;;;18.50;38.30;;;;;;4916962;29;20212;-82
2023/02/26 11:11:04;;;;;;;19.70;1.95;;;18.50;38.40;;;;;;4936797;29;20629;-82
2023/02/26 11:13:35;;;;;;;16.42;1.95;;;18.60;38.10;;;;;;4921827;29;20649;-82
2023/02/26 11:16:20;;;;;;;17.38;1.52;;;18.70;37.80;;;;;;4909417;29;20246;-82
2023/02/26 11:18:49;;;;;;;23.55;2.05;;;18.60;37.80;;;;;;4939079;29;20190;-82
2023/02/26 11:21:18;;;;;;;11.63;1.65;;;18.70;38.00;;;;;;4914496;29;20166;-83
2023/02/26 11:23:47;;;;;;;18.05;2.03;;;18.60;38.00;;;;;;4917400;29;20186;-82
2023/02/26 11:26:17;;;;;;;14.90;1.98;;;18.60;37.90;;;;;;4934283;29;20607;-83
2023/02/26 11:28:46;;;;;;;12.77;1.55;;;18.60;38.00;;;;;;4917497;29;20229;-82
2023/02/26 11:31:19;;;;;;;12.40;1.85;;;18.70;38.10;;;;;;4914963;29;20181;-83
2023/02/26 11:33:52;;;;;;;27.10;2.05;;;18.70;38.20;;;;;;4960151;29;20228;-81
2023/02/26 11:36:19;;;;;;;17.73;1.92;;;18.70;38.10;;;;;;4947244;29;20174;-82
2023/02/26 11:38:52;;;;;;;22.55;2.05;;;18.60;38.00;;;;;;4926058;29;20659;-83
2023/02/26 11:41:18;;;;;;;22.45;2.13;;;18.70;38.30;;;;;;4912310;29;20189;-83
2023/02/26 11:44:00;;;;;;;17.65;1.70;;;18.70;38.10;;;;;;4925516;29;20186;-82
2023/02/26 11:46:25;;;;;;;17.42;2.20;;;18.70;38.30;;;;;;4908491;29;20222;-82
2023/02/26 11:48:54;;;;;;;25.08;2.22;;;18.70;38.40;;;;;;4927081;29;20202;-82
2023/02/26 11:51:24;;;;;;;18.17;1.52;;;18.70;38.50;;;;;;4912461;29;20178;-83
2023/02/26 11:53:52;;;;;;;24.10;2.05;;;18.70;38.30;;;;;;4926436;29;20514;-82
2023/02/26 11:56:25;;;;;;;35.38;3.30;;;18.70;38.30;;;;;;4929166;29;20203;-83
2023/02/26 11:58:54;;;;;;;40.58;3.60;;;18.70;38.70;;;;;;4912012;29;20564;-83
2023/02/26 12:01:21;;;;;;;30.55;2.65;;;18.70;38.60;;;;;;4927881;29;20224;-82
2023/02/26 12:03:48;;;;;;;16.17;2.50;;;18.70;38.60;;;;;;4911565;29;20165;-81
2023/02/26 12:06:19;;;;;;;29.98;2.80;;;18.70;38.30;;;;;;4942637;29;20562;-82
2023/02/26 12:08:45;;;;;;;24.73;2.20;;;18.70;38.50;;;;;;4924990;29;20653;-82
2023/02/26 12:11:31;;;;;;;24.50;2.40;;;18.70;38.30;;;;;;4924328;29;20162;-81
2023/02/26 12:14:25;;;;;;;28.65;2.15;;;18.80;38.50;;;;;;4941425;29;20160;-81
2023/02/26 12:17:25;;;;;;;27.75;2.63;;;18.70;38.60;;;;;;4940718;29;20243;-82
2023/02/26 12:20:18;;;;;;;25.40;2.97;;;18.70;38.30;;;;;;4928674;29;20202;-82
2023/02/26 12:23:01;;;;;;;21.70;2.28;;;18.70;38.50;;;;;;4943733;29;20178;-82
2023/02/26 12:25:38;;;;;;;18.73;2.13;;;18.70;38.30;;;;;;4927248;29;20657;-83
2023/02/26 12:28:22;;;;;;;30.75;2.30;;;18.70;38.10;;;;;;4942118;29;20283;-81
2023/02/26 12:31:14;;;;;;;29.13;2.78;;;18.70;38.40;;;;;;4922581;29;20194;-82
2023/02/26 12:34:05;;;;;;;21.70;2.55;;;18.70;38.20;;;;;;4919311;29;20186;-82
2023/02/26 12:36:54;;;;;;;21.10;2.55;;;18.70;37.90;;;;;;4900475;29;20657;-81
2023/02/26 12:39:40;;;;;;;19.65;2.25;;;18.70;37.90;;;;;;4932658;29;20591;-81
2023/02/26 12:42:13;;;;;;;22.52;2.20;;;18.70;38.00;;;;;;4947105;29;20222;-82
2023/02/26 12:45:04;;;;;;;16.80;1.83;;;18.70;38.00;;;;;;4946022;29;20177;-83
2023/02/26 12:47:39;;;;;;;20.80;2.05;;;18.70;38.10;;;;;;4959214;29;20218;-82
2023/02/26 12:50:32;;;;;;;19.85;1.75;;;18.70;38.30;;;;;;4915025;29;20181;-82
2023/02/26 12:53:15;;;;;;;10.40;1.67;;;18.70;38.00;;;;;;4942681;29;20205;-82
2023/02/26 12:55:51;;;;;;;15.02;1.90;;;18.70;38.00;;;;;;4950273;29;20679;-83
2023/02/26 12:58:34;;;;;;;16.17;1.48;;;18.70;38.20;;;;;;4931445;29;20186;-82
2023/02/26 13:01:19;;;;;;;16.27;1.92;;;18.70;38.00;;;;;;4932946;29;20166;-82
2023/02/26 13:04:16;;;;;;;12.60;1.50;;;18.70;38.30;;;;;;4947712;29;20234;-82